createdAt,value
2023-06-05T00:04:38.022Z,12.61
2023-06-05T00:14:44.585Z,12.62
2023-06-05T00:24:50.046Z,12.59
2023-06-05T00:34:56.522Z,12.48
2023-06-05T00:45:00.640Z,11.91
2023-06-05T00:55:05.607Z,11.00
2023-06-05T01:05:11.706Z,10.27
2023-06-05T01:15:19.653Z,9.84
2023-06-05T01:25:26.398Z,9.53
2023-06-05T01:35:34.325Z,9.17
2023-06-05T01:45:41.784Z,9.00
2023-06-05T01:55:47.933Z,8.95
2023-06-05T02:05:52.589Z,8.93
2023-06-05T02:15:58.610Z,8.87
2023-06-05T02:26:04.266Z,8.81
2023-06-05T02:36:10.018Z,8.65
2023-06-05T02:46:15.862Z,8.50
2023-06-05T02:56:23.164Z,8.39
2023-06-05T03:06:29.376Z,8.29
2023-06-05T03:16:43.178Z,8.50
2023-06-05T03:26:49.311Z,10.24
2023-06-05T03:36:55.149Z,12.17
2023-06-05T03:47:00.602Z,13.74
2023-06-05T03:57:10.559Z,15.09
2023-06-05T04:07:16.129Z,16.51
2023-06-05T04:17:21.604Z,17.82
2023-06-05T04:27:29.910Z,19.15
2023-06-05T04:37:36.626Z,20.52
2023-06-05T04:47:42.208Z,21.64
2023-06-05T04:57:46.920Z,22.56
2023-06-05T05:17:57.386Z,22.44
2023-06-05T05:28:02.994Z,22.56
2023-06-05T05:38:08.040Z,22.21
2023-06-05T05:48:13.645Z,21.76
2023-06-05T05:58:19.707Z,21.95
2023-06-05T06:08:26.326Z,22.04
2023-06-05T06:18:32.073Z,22.42
2023-06-05T06:28:37.751Z,22.90
2023-06-05T06:38:43.247Z,23.26
2023-06-05T06:48:48.904Z,23.30
2023-06-05T06:58:56.097Z,23.82
2023-06-05T07:09:00.643Z,24.14
2023-06-05T07:19:06.510Z,24.35
2023-06-05T07:29:11.937Z,23.81
2023-06-05T07:39:18.681Z,23.80
2023-06-05T07:49:24.540Z,23.63
2023-06-05T07:59:30.709Z,23.93
2023-06-05T08:09:39.680Z,23.68
2023-06-05T08:19:46.904Z,23.92
2023-06-05T08:29:52.459Z,23.96
2023-06-05T08:39:58.009Z,23.98
2023-06-05T08:50:02.996Z,23.88
2023-06-05T09:00:11.828Z,23.55
2023-06-05T09:10:31.445Z,23.62
2023-06-05T09:20:38.957Z,23.84
2023-06-05T09:30:55.414Z,23.87
2023-06-05T09:41:06.177Z,23.97
2023-06-05T09:51:11.109Z,24.06
2023-06-05T10:01:16.526Z,23.91
2023-06-05T10:11:21.937Z,23.86
2023-06-05T10:21:29.285Z,24.00
2023-06-05T10:31:35.736Z,24.23
2023-06-05T10:41:41.687Z,24.37
2023-06-05T10:51:48.219Z,24.10
2023-06-05T11:02:12.882Z,24.07
2023-06-05T11:12:19.078Z,23.93
2023-06-05T11:22:25.089Z,24.41
2023-06-05T11:32:31.478Z,24.35
2023-06-05T11:42:37.372Z,24.56
2023-06-05T11:52:42.538Z,24.59
2023-06-05T12:02:48.402Z,24.52
2023-06-05T12:12:55.240Z,24.37
2023-06-05T12:23:01.087Z,24.28
2023-06-05T12:33:06.008Z,24.43
2023-06-05T12:43:18.287Z,24.43
2023-06-05T12:53:23.779Z,24.46
2023-06-05T13:03:29.831Z,24.62
2023-06-05T13:13:35.546Z,24.67
2023-06-05T13:23:41.350Z,24.49
2023-06-05T13:33:47.250Z,24.58
2023-06-05T13:43:52.870Z,24.54
2023-06-05T13:53:57.773Z,24.59
2023-06-05T14:04:03.947Z,24.69
2023-06-05T14:14:10.021Z,24.42
2023-06-05T14:24:16.335Z,24.48
2023-06-05T14:34:21.228Z,24.61
2023-06-05T15:28:46.767Z,24.18
2023-06-05T15:38:53.420Z,24.09
2023-06-05T15:49:01.081Z,24.09
2023-06-05T15:59:08.415Z,24.17
2023-06-05T16:09:15.627Z,24.18
2023-06-05T16:19:24.193Z,24.11
2023-06-05T16:29:32.681Z,24.06
2023-06-05T16:39:41.191Z,23.82
2023-06-05T16:49:48.817Z,23.45
2023-06-05T16:59:56.048Z,23.26
2023-06-05T17:10:03.444Z,23.11
2023-06-05T17:20:11.495Z,22.92
2023-06-05T17:30:16.594Z,22.70
2023-06-05T17:40:25.649Z,22.49
2023-06-05T17:50:33.692Z,22.15
2023-06-05T18:00:41.888Z,21.91
2023-06-05T18:10:47.153Z,21.48
2023-06-05T18:20:54.650Z,20.91
2023-06-05T18:31:01.968Z,20.38
2023-06-05T18:41:09.385Z,19.75
2023-06-05T18:51:15.561Z,19.18
2023-06-05T19:01:23.138Z,18.69
2023-06-05T19:11:30.876Z,18.23
2023-06-05T19:21:38.298Z,17.83
2023-06-05T19:31:46.629Z,17.47
2023-06-05T19:41:53.510Z,17.17
2023-06-05T19:52:02.474Z,16.87
2023-06-05T20:02:07.641Z,16.62
2023-06-05T20:12:15.674Z,16.34
2023-06-05T20:22:23.978Z,16.24
2023-06-05T20:32:31.394Z,16.21
2023-06-05T20:42:39.002Z,16.60
2023-06-05T20:52:46.414Z,17.05
2023-06-05T21:02:53.877Z,17.44
2023-06-05T21:13:01.747Z,17.60
2023-06-05T21:23:08.099Z,17.73
2023-06-05T21:33:15.416Z,17.78
2023-06-05T21:43:21.795Z,17.78
2023-06-05T21:53:29.417Z,17.72
2023-06-05T22:03:37.162Z,17.65
2023-06-05T22:13:45.834Z,17.45
2023-06-05T22:23:53.388Z,17.29
2023-06-05T22:44:07.883Z,17.11
2023-06-05T22:54:15.040Z,17.06
2023-06-05T23:04:22.361Z,17.08
2023-06-05T23:14:30.495Z,17.16
2023-06-05T23:24:37.663Z,17.23
2023-06-05T23:34:44.940Z,17.31
2023-06-05T23:44:50.893Z,17.28
2023-06-05T23:54:57.969Z,17.31
